Match Point — CRA4590 — position and weather

sailwx.info

Track history (hours):
 
Tides and Currents Weather Stations Pressure Air Temp Water Temp Dewpoint Dewpoint Depression Visibility Wind Speed Wind Dir Waves Ship Positions

Match Point

Last reported at 2015-Jun-28 18:31 UTC. Time now 2015-Jul-02 05:18 UTC.
Position N 38°41' W 009°19'.

Length 15 m.

Type: Sailing vessel. MMSI: 263913640.

Date/timePositionNaut miles runAvg speedWind from/ knotsBaromVisibWave heightAir tempDewpointWater temp
2015-Jun-28 18:31N 38°41' W 009°19'5 3.6
2015-Jun-28 17:14N 38°42' W 009°25'0 0.0
2015-Jun-28 16:17N 38°42' W 009°25'0 0.0
2015-Jun-28 15:17N 38°42' W 009°25'0 0.0
2015-Jun-28 13:23N 38°42' W 009°25'2 1.8
2015-Jun-28 12:33N 38°41' W 009°26'4 3.9
2015-Jun-28 11:33N 38°40' W 009°21'  
2015-Jun-21 17:33N 38°41' W 009°19'5 4.7
2015-Jun-21 16:33N 38°42' W 009°25'0 0.1
2015-Jun-21 15:22N 38°42' W 009°25'0 0.0
2015-Jun-21 14:22N 38°42' W 009°25'0 0.0
2015-Jun-21 13:30N 38°42' W 009°25'2 1.6
2015-Jun-21 12:29N 38°41' W 009°23'3 3.3
2015-Jun-21 11:30N 38°41' W 009°19'1 0.0
2015-Jun-20 18:33N 38°40' W 009°20'4 4.0
2015-Jun-20 17:31N 38°42' W 009°25'0 0.0
2015-Jun-20 16:31N 38°42' W 009°25'0 0.0
2015-Jun-20 15:25N 38°42' W 009°25'0 0.0
2015-Jun-20 14:31N 38°42' W 009°25'0 0.0
2015-Jun-20 13:31N 38°42' W 009°25'0 0.0
2015-Jun-20 12:33N 38°42' W 009°25'5 4.4
2015-Jun-20 11:31N 38°41' W 009°19'0 0.0
2015-Jun-19 19:26N 38°41' W 009°19'0 0.0
2015-Jun-19 18:32N 38°41' W 009°19'0 0.0
2015-Jun-19 17:32N 38°41' W 009°19'0 0.2
2015-Jun-19 16:33N 38°40' W 009°19'  
Track history (hours):
 
Tides and Currents Weather Stations Pressure Air Temp Water Temp Dewpoint Dewpoint Depression Visibility Wind Speed Wind Dir Waves Ship Positions

Match Point

Last reported at 2015-Jun-28 18:31 UTC. Time now 2015-Jul-02 05:18 UTC.
Position N 38°41' W 009°19'.

Length 15 m.

Type: Sailing vessel. MMSI: 263913640.

Date/timePositionNaut miles runAvg speedWind from/ knotsBaromVisibWave heightAir tempDewpointWater temp
2015-Jun-28 18:31N 38°41' W 009°19'5 3.6
2015-Jun-28 17:14N 38°42' W 009°25'0 0.0
2015-Jun-28 16:17N 38°42' W 009°25'0 0.0
2015-Jun-28 15:17N 38°42' W 009°25'0 0.0
2015-Jun-28 13:23N 38°42' W 009°25'2 1.8
2015-Jun-28 12:33N 38°41' W 009°26'4 3.9
2015-Jun-28 11:33N 38°40' W 009°21'  
2015-Jun-21 17:33N 38°41' W 009°19'5 4.7
2015-Jun-21 16:33N 38°42' W 009°25'0 0.1
2015-Jun-21 15:22N 38°42' W 009°25'0 0.0
2015-Jun-21 14:22N 38°42' W 009°25'0 0.0
2015-Jun-21 13:30N 38°42' W 009°25'2 1.6
2015-Jun-21 12:29N 38°41' W 009°23'3 3.3
2015-Jun-21 11:30N 38°41' W 009°19'1 0.0
2015-Jun-20 18:33N 38°40' W 009°20'4 4.0
2015-Jun-20 17:31N 38°42' W 009°25'0 0.0
2015-Jun-20 16:31N 38°42' W 009°25'0 0.0
2015-Jun-20 15:25N 38°42' W 009°25'0 0.0
2015-Jun-20 14:31N 38°42' W 009°25'0 0.0
2015-Jun-20 13:31N 38°42' W 009°25'0 0.0
2015-Jun-20 12:33N 38°42' W 009°25'5 4.4
2015-Jun-20 11:31N 38°41' W 009°19'0 0.0
2015-Jun-19 19:26N 38°41' W 009°19'0 0.0
2015-Jun-19 18:32N 38°41' W 009°19'0 0.0
2015-Jun-19 17:32N 38°41' W 009°19'0 0.2
2015-Jun-19 16:33N 38°40' W 009°19'  

Dump ship's entire track history